sensor_id;sensor_type;location;lat;lon;timestamp;pressure;altitude;pressure_sealevel;temperature;humidity
74270;BME280;62754;48.252;11.654;2023-07-13T00:00:32;96106.59;;;18.37;100.00
74270;BME280;62754;48.252;11.654;2023-07-13T00:03:00;96103.97;;;18.37;100.00
74270;BME280;62754;48.252;11.654;2023-07-13T00:05:28;96106.13;;;18.33;100.00
74270;BME280;62754;48.252;11.654;2023-07-13T00:07:54;96105.78;;;18.36;100.00
74270;BME280;62754;48.252;11.654;2023-07-13T00:10:21;96094.22;;;18.31;100.00
74270;BME280;62754;48.252;11.654;2023-07-13T00:12:50;96086.56;;;18.29;100.00
74270;BME280;62754;48.252;11.654;2023-07-13T00:15:23;96085.91;;;18.27;100.00
74270;BME280;62754;48.252;11.654;2023-07-13T00:17:53;96089.88;;;18.15;100.00
74270;BME280;62754;48.252;11.654;2023-07-13T00:20:23;96089.00;;;18.31;100.00
74270;BME280;62754;48.252;11.654;2023-07-13T00:22:52;96082.69;;;18.25;100.00
74270;BME280;62754;48.252;11.654;2023-07-13T00:25:18;96092.44;;;18.23;100.00
74270;BME280;62754;48.252;11.654;2023-07-13T00:27:46;96094.22;;;18.31;100.00
74270;BME280;62754;48.252;11.654;2023-07-13T00:30:12;96091.31;;;18.26;100.00
74270;BME280;62754;48.252;11.654;2023-07-13T00:32:38;96105.97;;;18.27;100.00
74270;BME280;62754;48.252;11.654;2023-07-13T00:35:06;96098.00;;;18.20;100.00
74270;BME280;62754;48.252;11.654;2023-07-13T00:37:35;96095.53;;;18.27;100.00
74270;BME280;62754;48.252;11.654;2023-07-13T00:40:02;96095.22;;;18.30;100.00
74270;BME280;62754;48.252;11.654;2023-07-13T00:42:33;96108.25;;;18.30;100.00
74270;BME280;62754;48.252;11.654;2023-07-13T00:47:39;96101.41;;;18.29;100.00
74270;BME280;62754;48.252;11.654;2023-07-13T00:50:13;96093.25;;;18.24;100.00
74270;BME280;62754;48.252;11.654;2023-07-13T00:52:44;96098.81;;;18.29;100.00
74270;BME280;62754;48.252;11.654;2023-07-13T00:55:11;96090.66;;;18.24;100.00
74270;BME280;62754;48.252;11.654;2023-07-13T00:57:41;96104.66;;;18.23;100.00
74270;BME280;62754;48.252;11.654;2023-07-13T01:00:08;96096.38;;;18.19;100.00
74270;BME280;62754;48.252;11.654;2023-07-13T01:02:39;96099.81;;;18.20;100.00
74270;BME280;62754;48.252;11.654;2023-07-13T01:05:13;96111.25;;;18.19;100.00
74270;BME280;62754;48.252;11.654;2023-07-13T01:07:42;96107.13;;;18.24;100.00
74270;BME280;62754;48.252;11.654;2023-07-13T01:10:14;96095.25;;;18.22;100.00
74270;BME280;62754;48.252;11.654;2023-07-13T01:12:39;96086.38;;;18.31;100.00
74270;BME280;62754;48.252;11.654;2023-07-13T01:15:32;96084.00;;;18.21;100.00
74270;BME280;62754;48.252;11.654;2023-07-13T01:17:51;96080.06;;;18.25;100.00
74270;BME280;62754;48.252;11.654;2023-07-13T01:20:19;96077.97;;;18.21;100.00
74270;BME280;62754;48.252;11.654;2023-07-13T01:22:47;96073.34;;;18.31;100.00
74270;BME280;62754;48.252;11.654;2023-07-13T01:25:16;96069.13;;;18.30;100.00
74270;BME280;62754;48.252;11.654;2023-07-13T01:27:43;96071.75;;;18.30;100.00
74270;BME280;62754;48.252;11.654;2023-07-13T01:30:10;96071.53;;;18.31;100.00
74270;BME280;62754;48.252;11.654;2023-07-13T01:32:35;96067.47;;;18.37;100.00
74270;BME280;62754;48.252;11.654;2023-07-13T01:35:04;96067.56;;;18.43;100.00
74270;BME280;62754;48.252;11.654;2023-07-13T01:37:29;96058.66;;;18.38;100.00
74270;BME280;62754;48.252;11.654;2023-07-13T01:39:58;96052.63;;;18.37;100.00
74270;BME280;62754;48.252;11.654;2023-07-13T01:42:24;96068.47;;;18.28;100.00
74270;BME280;62754;48.252;11.654;2023-07-13T01:44:52;96086.28;;;18.16;100.00
74270;BME280;62754;48.252;11.654;2023-07-13T01:47:21;96079.81;;;18.04;100.00
74270;BME280;62754;48.252;11.654;2023-07-13T01:49:47;96090.44;;;18.02;100.00
74270;BME280;62754;48.252;11.654;2023-07-13T01:52:13;96091.53;;;18.08;100.00
74270;BME280;62754;48.252;11.654;2023-07-13T01:54:38;96089.75;;;18.08;100.00
74270;BME280;62754;48.252;11.654;2023-07-13T01:57:04;96093.00;;;18.11;100.00
74270;BME280;62754;48.252;11.654;2023-07-13T01:59:30;96082.63;;;17.94;100.00
74270;BME280;62754;48.252;11.654;2023-07-13T02:01:58;96096.00;;;17.99;100.00
74270;BME280;62754;48.252;11.654;2023-07-13T02:04:24;96098.94;;;17.88;100.00
74270;BME280;62754;48.252;11.654;2023-07-13T02:06:50;96098.00;;;17.73;100.00
74270;BME280;62754;48.252;11.654;2023-07-13T02:09:16;96098.00;;;17.65;100.00
74270;BME280;62754;48.252;11.654;2023-07-13T02:11:41;96087.44;;;17.58;100.00
74270;BME280;62754;48.252;11.654;2023-07-13T02:14:09;96097.03;;;17.66;100.00
74270;BME280;62754;48.252;11.654;2023-07-13T02:16:37;96095.56;;;17.72;100.00
74270;BME280;62754;48.252;11.654;2023-07-13T02:19:03;96096.38;;;17.72;100.00
74270;BME280;62754;48.252;11.654;2023-07-13T02:21:29;96099.63;;;17.82;100.00
74270;BME280;62754;48.252;11.654;2023-07-13T02:23:59;96095.38;;;17.81;100.00
74270;BME280;62754;48.252;11.654;2023-07-13T02:26:25;96086.72;;;17.81;100.00
74270;BME280;62754;48.252;11.654;2023-07-13T02:28:53;96088.34;;;17.90;100.00
74270;BME280;62754;48.252;11.654;2023-07-13T02:31:21;96093.09;;;17.86;100.00
74270;BME280;62754;48.252;11.654;2023-07-13T02:33:47;96098.16;;;17.88;100.00
74270;BME280;62754;48.252;11.654;2023-07-13T02:36:13;96103.84;;;17.91;100.00
74270;BME280;62754;48.252;11.654;2023-07-13T02:38:42;96102.34;;;17.97;100.00
74270;BME280;62754;48.252;11.654;2023-07-13T02:41:12;96102.34;;;17.97;100.00
74270;BME280;62754;48.252;11.654;2023-07-13T02:43:40;96103.16;;;17.97;100.00
74270;BME280;62754;48.252;11.654;2023-07-13T02:46:08;96114.56;;;17.96;100.00
74270;BME280;62754;48.252;11.654;2023-07-13T02:48:35;96123.53;;;17.94;100.00
74270;BME280;62754;48.252;11.654;2023-07-13T02:51:01;96124.84;;;17.90;100.00
74270;BME280;62754;48.252;11.654;2023-07-13T02:53:29;96133.81;;;17.87;100.00
74270;BME280;62754;48.252;11.654;2023-07-13T02:55:55;96138.72;;;17.82;100.00
74270;BME280;62754;48.252;11.654;2023-07-13T02:58:23;96140.00;;;17.86;100.00
74270;BME280;62754;48.252;11.654;2023-07-13T03:00:51;96140.47;;;17.90;100.00
74270;BME280;62754;48.252;11.654;2023-07-13T03:03:19;96145.22;;;17.86;100.00
74270;BME280;62754;48.252;11.654;2023-07-13T03:05:45;96143.94;;;17.74;100.00
74270;BME280;62754;48.252;11.654;2023-07-13T03:08:11;96142.63;;;17.78;100.00
74270;BME280;62754;48.252;11.654;2023-07-13T03:10:38;96141.94;;;17.84;100.00
74270;BME280;62754;48.252;11.654;2023-07-13T03:13:03;96131.56;;;17.76;100.00
74270;BME280;62754;48.252;11.654;2023-07-13T03:15:31;96128.28;;;17.82;100.00
74270;BME280;62754;48.252;11.654;2023-07-13T03:17:57;96142.13;;;17.83;100.00
74270;BME280;62754;48.252;11.654;2023-07-13T03:20:25;96147.22;;;17.68;100.00
74270;BME280;62754;48.252;11.654;2023-07-13T03:22:51;96153.22;;;17.69;100.00
74270;BME280;62754;48.252;11.654;2023-07-13T03:25:21;96157.47;;;17.61;100.00
74270;BME280;62754;48.252;11.654;2023-07-13T03:27:51;96151.94;;;17.65;100.00
74270;BME280;62754;48.252;11.654;2023-07-13T03:30:20;96150.44;;;17.70;100.00
74270;BME280;62754;48.252;11.654;2023-07-13T03:32:47;96155.50;;;17.72;100.00
74270;BME280;62754;48.252;11.654;2023-07-13T03:35:13;96155.19;;;17.58;100.00
74270;BME280;62754;48.252;11.654;2023-07-13T03:37:39;96152.09;;;17.63;100.00
74270;BME280;62754;48.252;11.654;2023-07-13T03:40:08;96148.19;;;17.59;100.00
74270;BME280;62754;48.252;11.654;2023-07-13T03:42:36;96152.09;;;17.63;100.00
74270;BME280;62754;48.252;11.654;2023-07-13T03:45:08;96152.25;;;17.61;100.00
74270;BME280;62754;48.252;11.654;2023-07-13T03:47:34;96159.91;;;17.63;100.00
74270;BME280;62754;48.252;11.654;2023-07-13T03:50:04;96160.25;;;17.68;100.00
74270;BME280;62754;48.252;11.654;2023-07-13T03:52:30;96160.53;;;17.73;100.00
74270;BME280;62754;48.252;11.654;2023-07-13T03:54:56;96161.06;;;17.60;100.00
74270;BME280;62754;48.252;11.654;2023-07-13T03:57:24;96157.47;;;17.70;100.00
74270;BME280;62754;48.252;11.654;2023-07-13T03:59:52;96162.84;;;17.76;100.00
74270;BME280;62754;48.252;11.654;2023-07-13T04:02:20;96167.25;;;17.76;100.00
74270;BME280;62754;48.252;11.654;2023-07-13T04:04:46;96165.13;;;17.71;100.00
74270;BME280;62754;48.252;11.654;2023-07-13T04:07:14;96161.84;;;17.69;100.00
74270;BME280;62754;48.252;11.654;2023-07-13T04:09:44;96161.03;;;17.52;100.00
74270;BME280;62754;48.252;11.654;2023-07-13T04:12:12;96173.72;;;17.55;100.00
74270;BME280;62754;48.252;11.654;2023-07-13T04:14:38;96175.41;;;17.65;100.00
74270;BME280;62754;48.252;11.654;2023-07-13T04:17:09;96177.00;;;17.57;100.00
74270;BME280;62754;48.252;11.654;2023-07-13T04:19:37;96183.81;;;17.50;100.00
74270;BME280;62754;48.252;11.654;2023-07-13T04:22:05;96185.44;;;17.51;100.00
74270;BME280;62754;48.252;11.654;2023-07-13T04:24:31;96187.38;;;17.49;100.00
74270;BME280;62754;48.252;11.654;2023-07-13T04:26:59;96187.38;;;17.49;100.00
74270;BME280;62754;48.252;11.654;2023-07-13T04:29:27;96194.13;;;17.60;100.00
74270;BME280;62754;48.252;11.654;2023-07-13T04:31:55;96188.09;;;17.59;100.00
74270;BME280;62754;48.252;11.654;2023-07-13T04:34:21;96194.94;;;17.60;100.00
74270;BME280;62754;48.252;11.654;2023-07-13T04:36:47;96198.81;;;17.56;100.00
74270;BME280;62754;48.252;11.654;2023-07-13T04:39:15;96212.19;;;17.61;100.00
74270;BME280;62754;48.252;11.654;2023-07-13T04:41:43;96201.13;;;17.59;100.00
74270;BME280;62754;48.252;11.654;2023-07-13T04:44:09;96202.75;;;17.60;100.00
74270;BME280;62754;48.252;11.654;2023-07-13T04:46:34;96199.81;;;17.64;100.00
74270;BME280;62754;48.252;11.654;2023-07-13T04:49:03;96206.97;;;17.70;100.00
74270;BME280;62754;48.252;11.654;2023-07-13T04:51:29;96203.41;;;17.63;100.00
74270;BME280;62754;48.252;11.654;2023-07-13T04:53:57;96208.22;;;17.49;100.00
74270;BME280;62754;48.252;11.654;2023-07-13T04:56:22;96201.94;;;17.68;100.00
74270;BME280;62754;48.252;11.654;2023-07-13T04:58:48;96198.31;;;17.53;100.00
74270;BME280;62754;48.252;11.654;2023-07-13T05:01:16;96208.41;;;17.48;100.00
74270;BME280;62754;48.252;11.654;2023-07-13T05:03:44;96206.97;;;17.45;100.00
74270;BME280;62754;48.252;11.654;2023-07-13T05:06:12;96217.06;;;17.56;100.00
74270;BME280;62754;48.252;11.654;2023-07-13T05:08:38;96229.41;;;17.54;100.00
74270;BME280;62754;48.252;11.654;2023-07-13T05:11:08;96225.97;;;17.54;100.00
74270;BME280;62754;48.252;11.654;2023-07-13T05:13:34;96223.56;;;17.44;100.00
74270;BME280;62754;48.252;11.654;2023-07-13T05:16:02;96228.09;;;17.42;100.00
74270;BME280;62754;48.252;11.654;2023-07-13T05:18:29;96230.22;;;17.39;100.00
74270;BME280;62754;48.252;11.654;2023-07-13T05:21:03;96233.97;;;17.36;100.00
74270;BME280;62754;48.252;11.654;2023-07-13T05:23:31;96226.97;;;17.45;100.00
74270;BME280;62754;48.252;11.654;2023-07-13T05:25:59;96235.41;;;17.39;100.00
74270;BME280;62754;48.252;11.654;2023-07-13T05:28:28;96229.41;;;17.38;100.00
74270;BME280;62754;48.252;11.654;2023-07-13T05:30:56;96225.19;;;17.45;100.00
74270;BME280;62754;48.252;11.654;2023-07-13T05:33:27;96224.69;;;17.50;100.00
74270;BME280;62754;48.252;11.654;2023-07-13T05:35:53;96221.09;;;17.43;100.00
74270;BME280;62754;48.252;11.654;2023-07-13T05:38:21;96231.56;;;17.59;100.00
74270;BME280;62754;48.252;11.654;2023-07-13T05:40:47;96231.19;;;17.46;100.00
74270;BME280;62754;48.252;11.654;2023-07-13T05:43:15;96228.28;;;17.49;100.00
74270;BME280;62754;48.252;11.654;2023-07-13T05:45:42;96234.47;;;17.56;100.00
74270;BME280;62754;48.252;11.654;2023-07-13T05:48:17;96236.28;;;17.64;100.00
74270;BME280;62754;48.252;11.654;2023-07-13T05:50:45;96231.09;;;17.64;100.00
74270;BME280;62754;48.252;11.654;2023-07-13T05:53:11;96238.09;;;17.71;100.00
74270;BME280;62754;48.252;11.654;2023-07-13T05:55:41;96240.03;;;17.93;100.00
74270;BME280;62754;48.252;11.654;2023-07-13T05:58:07;96232.03;;;18.03;100.00
74270;BME280;62754;48.252;11.654;2023-07-13T06:00:37;96237.06;;;18.21;100.00
74270;BME280;62754;48.252;11.654;2023-07-13T06:03:03;96239.34;;;18.16;100.00
74270;BME280;62754;48.252;11.654;2023-07-13T06:05:33;96242.59;;;18.26;100.00
74270;BME280;62754;48.252;11.654;2023-07-13T06:08:01;96244.53;;;18.24;100.00
74270;BME280;62754;48.252;11.654;2023-07-13T06:10:27;96240.13;;;18.32;100.00
74270;BME280;62754;48.252;11.654;2023-07-13T06:12:55;96251.25;;;18.18;100.00
74270;BME280;62754;48.252;11.654;2023-07-13T06:15:23;96253.69;;;18.20;100.00
74270;BME280;62754;48.252;11.654;2023-07-13T06:17:48;96254.16;;;18.23;100.00
74270;BME280;62754;48.252;11.654;2023-07-13T06:20:14;96260.97;;;18.48;100.00
74270;BME280;62754;48.252;11.654;2023-07-13T06:22:40;96262.75;;;18.64;100.00
74270;BME280;62754;48.252;11.654;2023-07-13T06:25:11;96253.03;;;18.81;98.01
74270;BME280;62754;48.252;11.654;2023-07-13T06:27:39;96248.41;;;18.99;99.34
74270;BME280;62754;48.252;11.654;2023-07-13T06:30:05;96252.69;;;19.23;94.27
74270;BME280;62754;48.252;11.654;2023-07-13T06:32:33;96255.84;;;19.41;94.35
74270;BME280;62754;48.252;11.654;2023-07-13T06:35:01;96255.06;;;19.63;91.75
74270;BME280;62754;48.252;11.654;2023-07-13T06:37:29;96256.13;;;19.77;89.01
74270;BME280;62754;48.252;11.654;2023-07-13T06:39:57;96264.94;;;19.98;88.14
74270;BME280;62754;48.252;11.654;2023-07-13T06:42:25;96267.91;;;19.95;90.41
74270;BME280;62754;48.252;11.654;2023-07-13T06:44:55;96272.78;;;19.76;83.87
74270;BME280;62754;48.252;11.654;2023-07-13T06:47:21;96276.84;;;19.56;87.11
74270;BME280;62754;48.252;11.654;2023-07-13T06:49:49;96275.25;;;19.46;86.50
74270;BME280;62754;48.252;11.654;2023-07-13T06:52:15;96289.59;;;19.50;88.18
74270;BME280;62754;48.252;11.654;2023-07-13T06:54:41;96295.66;;;19.51;87.52
74270;BME280;62754;48.252;11.654;2023-07-13T06:57:09;96297.88;;;19.62;87.80
74270;BME280;62754;48.252;11.654;2023-07-13T09:44:56;96392.09;;;20.82;61.79
74270;BME280;62754;48.252;11.654;2023-07-13T09:49:57;96386.69;;;20.84;59.85
74270;BME280;62754;48.252;11.654;2023-07-13T09:52:38;96384.53;;;20.87;60.43
74270;BME280;62754;48.252;11.654;2023-07-13T09:55:34;96396.13;;;21.08;59.74
74270;BME280;62754;48.252;11.654;2023-07-13T09:58:26;96395.41;;;21.43;58.10
74270;BME280;62754;48.252;11.654;2023-07-13T10:01:02;96397.50;;;21.83;58.14
74270;BME280;62754;48.252;11.654;2023-07-13T10:03:35;96388.06;;;22.04;55.13
74270;BME280;62754;48.252;11.654;2023-07-13T10:06:12;96394.94;;;21.54;54.59
74270;BME280;62754;48.252;11.654;2023-07-13T10:08:38;96392.63;;;22.38;52.20
74270;BME280;62754;48.252;11.654;2023-07-13T10:11:24;96389.94;;;22.31;54.00
74270;BME280;62754;48.252;11.654;2023-07-13T10:14:02;96394.75;;;22.49;56.77
74270;BME280;62754;48.252;11.654;2023-07-13T10:16:33;96392.19;;;22.34;51.59
74270;BME280;62754;48.252;11.654;2023-07-13T10:19:02;96394.63;;;22.78;55.04
74270;BME280;62754;48.252;11.654;2023-07-13T10:21:38;96400.38;;;22.95;54.87
74270;BME280;62754;48.252;11.654;2023-07-13T10:24:27;96392.19;;;23.11;50.33
74270;BME280;62754;48.252;11.654;2023-07-13T10:27:00;96404.41;;;23.25;52.22
74270;BME280;62754;48.252;11.654;2023-07-13T10:29:36;96410.50;;;22.98;51.61
74270;BME280;62754;48.252;11.654;2023-07-13T10:32:09;96405.22;;;23.60;46.93
74270;BME280;62754;48.252;11.654;2023-07-13T10:34:37;96400.94;;;24.06;47.27
74270;BME280;62754;48.252;11.654;2023-07-13T10:37:05;96398.81;;;24.95;46.50
74270;BME280;62754;48.252;11.654;2023-07-13T10:39:35;96395.19;;;24.90;42.68
74270;BME280;62754;48.252;11.654;2023-07-13T10:42:05;96386.00;;;25.25;45.26
74270;BME280;62754;48.252;11.654;2023-07-13T10:44:34;96391.34;;;24.86;43.86
74270;BME280;62754;48.252;11.654;2023-07-13T10:47:08;96393.34;;;24.57;43.56
74270;BME280;62754;48.252;11.654;2023-07-13T10:49:39;96408.13;;;24.52;43.78
74270;BME280;62754;48.252;11.654;2023-07-13T10:55:02;96405.69;;;23.77;46.01
74270;BME280;62754;48.252;11.654;2023-07-13T10:57:30;96403.44;;;24.21;46.74
74270;BME280;62754;48.252;11.654;2023-07-13T11:02:27;96406.81;;;26.04;42.59
74270;BME280;62754;48.252;11.654;2023-07-13T11:04:54;96407.81;;;26.47;42.37
74270;BME280;62754;48.252;11.654;2023-07-13T11:07:24;96411.19;;;26.30;40.80
74270;BME280;62754;48.252;11.654;2023-07-13T11:09:54;96399.22;;;25.83;41.83
74270;BME280;62754;48.252;11.654;2023-07-13T11:20:24;96407.28;;;25.24;44.21
74270;BME280;62754;48.252;11.654;2023-07-13T11:25:36;96412.97;;;24.42;43.88
74270;BME280;62754;48.252;11.654;2023-07-13T11:28:06;96413.97;;;24.34;44.72
74270;BME280;62754;48.252;11.654;2023-07-13T11:40:54;96390.22;;;25.52;42.79
74270;BME280;62754;48.252;11.654;2023-07-13T11:43:20;96389.00;;;25.35;44.11
74270;BME280;62754;48.252;11.654;2023-07-13T11:45:46;96388.06;;;25.10;44.17
74270;BME280;62754;48.252;11.654;2023-07-13T11:50:53;96372.94;;;26.64;42.41
74270;BME280;62754;48.252;11.654;2023-07-13T11:53:20;96371.03;;;27.57;38.02
74270;BME280;62754;48.252;11.654;2023-07-13T11:55:48;96362.56;;;27.96;34.63
74270;BME280;62754;48.252;11.654;2023-07-13T11:58:17;96368.91;;;28.25;35.03
74270;BME280;62754;48.252;11.654;2023-07-13T12:00:44;96370.75;;;27.94;34.47
74270;BME280;62754;48.252;11.654;2023-07-13T12:03:10;96368.56;;;28.86;34.85
74270;BME280;62754;48.252;11.654;2023-07-13T12:05:36;96366.22;;;27.83;35.42
74270;BME280;62754;48.252;11.654;2023-07-13T12:08:11;96363.56;;;26.61;37.74
74270;BME280;62754;48.252;11.654;2023-07-13T12:10:36;96367.13;;;25.86;39.11
74270;BME280;62754;48.252;11.654;2023-07-13T12:13:04;96367.09;;;25.35;41.85
74270;BME280;62754;48.252;11.654;2023-07-13T12:15:37;96357.63;;;25.07;40.69
74270;BME280;62754;48.252;11.654;2023-07-13T12:18:23;96365.75;;;24.99;42.48
74270;BME280;62754;48.252;11.654;2023-07-13T12:20:58;96363.56;;;24.44;42.97
74270;BME280;62754;48.252;11.654;2023-07-13T12:23:35;96356.38;;;25.81;40.17
74270;BME280;62754;48.252;11.654;2023-07-13T12:26:05;96351.00;;;26.81;39.98
74270;BME280;62754;48.252;11.654;2023-07-13T12:28:43;96347.00;;;26.97;34.66
74270;BME280;62754;48.252;11.654;2023-07-13T12:31:40;96345.19;;;28.30;32.85
74270;BME280;62754;48.252;11.654;2023-07-13T12:36:36;96344.13;;;28.96;33.14
74270;BME280;62754;48.252;11.654;2023-07-13T12:41:51;96342.28;;;29.08;31.45
74270;BME280;62754;48.252;11.654;2023-07-13T12:44:39;96341.06;;;28.46;31.74
74270;BME280;62754;48.252;11.654;2023-07-13T12:47:14;96337.31;;;28.88;32.73
74270;BME280;62754;48.252;11.654;2023-07-13T12:49:53;96335.63;;;29.57;33.38
74270;BME280;62754;48.252;11.654;2023-07-13T12:52:38;96330.34;;;28.40;33.13
74270;BME280;62754;48.252;11.654;2023-07-13T12:55:06;96337.69;;;27.67;34.61
74270;BME280;62754;48.252;11.654;2023-07-13T12:57:34;96332.63;;;28.25;32.75
74270;BME280;62754;48.252;11.654;2023-07-13T13:00:04;96320.22;;;29.30;31.95
74270;BME280;62754;48.252;11.654;2023-07-13T13:02:33;96326.44;;;28.55;32.09
74270;BME280;62754;48.252;11.654;2023-07-13T13:04:59;96321.25;;;28.07;32.06
74270;BME280;62754;48.252;11.654;2023-07-13T13:07:26;96318.91;;;26.78;33.81
74270;BME280;62754;48.252;11.654;2023-07-13T13:09:54;96318.66;;;26.05;38.04
74270;BME280;62754;48.252;11.654;2023-07-13T13:12:22;96324.13;;;26.10;36.42
74270;BME280;62754;48.252;11.654;2023-07-13T13:14:50;96321.56;;;25.97;36.49
74270;BME280;62754;48.252;11.654;2023-07-13T13:17:23;96317.44;;;26.57;35.10
74270;BME280;62754;48.252;11.654;2023-07-13T13:19:50;96311.00;;;26.96;37.22
74270;BME280;62754;48.252;11.654;2023-07-13T13:22:19;96310.44;;;27.49;35.43
74270;BME280;62754;48.252;11.654;2023-07-13T13:24:44;96310.44;;;27.12;35.82
74270;BME280;62754;48.252;11.654;2023-07-13T13:27:15;96312.63;;;27.52;34.77
74270;BME280;62754;48.252;11.654;2023-07-13T13:29:45;96306.50;;;26.78;35.16
74270;BME280;62754;48.252;11.654;2023-07-13T13:32:16;96316.13;;;27.93;33.63
74270;BME280;62754;48.252;11.654;2023-07-13T13:34:46;96311.47;;;27.29;35.75
74270;BME280;62754;48.252;11.654;2023-07-13T13:37:23;96308.56;;;27.67;34.65
74270;BME280;62754;48.252;11.654;2023-07-13T13:39:49;96316.66;;;27.54;35.27
74270;BME280;62754;48.252;11.654;2023-07-13T13:42:15;96308.75;;;26.75;36.44
74270;BME280;62754;48.252;11.654;2023-07-13T13:44:40;96312.00;;;26.27;35.11
74270;BME280;62754;48.252;11.654;2023-07-13T13:47:28;96323.38;;;25.58;37.21
74270;BME280;62754;48.252;11.654;2023-07-13T13:49:55;96316.47;;;25.00;39.08
74270;BME280;62754;48.252;11.654;2023-07-13T13:52:20;96325.63;;;24.71;38.21
74270;BME280;62754;48.252;11.654;2023-07-13T13:54:46;96324.03;;;24.31;39.04
74270;BME280;62754;48.252;11.654;2023-07-13T13:57:11;96324.78;;;24.11;40.14
74270;BME280;62754;48.252;11.654;2023-07-13T13:59:38;96331.06;;;23.97;39.97
74270;BME280;62754;48.252;11.654;2023-07-13T14:02:26;96322.13;;;23.92;40.72
74270;BME280;62754;48.252;11.654;2023-07-13T14:04:55;96323.78;;;24.12;40.25
74270;BME280;62754;48.252;11.654;2023-07-13T14:07:22;96310.81;;;24.11;38.50
74270;BME280;62754;48.252;11.654;2023-07-13T14:09:48;96309.81;;;24.71;39.86
74270;BME280;62754;48.252;11.654;2023-07-13T14:12:16;96321.41;;;24.44;38.11
74270;BME280;62754;48.252;11.654;2023-07-13T14:14:41;96326.00;;;24.09;38.01
74270;BME280;62754;48.252;11.654;2023-07-13T14:17:20;96327.25;;;24.65;38.60
74270;BME280;62754;48.252;11.654;2023-07-13T14:19:48;96315.38;;;25.27;36.84
74270;BME280;62754;48.252;11.654;2023-07-13T14:22:19;96311.91;;;25.27;36.98
74270;BME280;62754;48.252;11.654;2023-07-13T14:24:45;96310.59;;;25.49;37.56
74270;BME280;62754;48.252;11.654;2023-07-13T14:27:11;96304.03;;;26.83;36.60
74270;BME280;62754;48.252;11.654;2023-07-13T14:29:37;96307.41;;;28.34;33.69
74270;BME280;62754;48.252;11.654;2023-07-13T14:32:03;96300.53;;;28.92;29.80
74270;BME280;62754;48.252;11.654;2023-07-13T14:34:31;96309.84;;;29.06;31.46
74270;BME280;62754;48.252;11.654;2023-07-13T14:36:59;96314.03;;;29.81;31.16
74270;BME280;62754;48.252;11.654;2023-07-13T14:39:25;96309.34;;;29.72;28.89
74270;BME280;62754;48.252;11.654;2023-07-13T14:41:51;96309.75;;;29.92;30.04
74270;BME280;62754;48.252;11.654;2023-07-13T14:44:24;96316.97;;;30.25;27.82
74270;BME280;62754;48.252;11.654;2023-07-13T14:47:01;96314.81;;;30.55;29.31
74270;BME280;62754;48.252;11.654;2023-07-13T14:51:57;96308.88;;;30.20;30.25
74270;BME280;62754;48.252;11.654;2023-07-13T14:54:24;96315.06;;;30.54;29.04
74270;BME280;62754;48.252;11.654;2023-07-13T14:56:53;96303.31;;;29.76;28.65
74270;BME280;62754;48.252;11.654;2023-07-13T14:59:23;96308.09;;;29.63;31.77
74270;BME280;62754;48.252;11.654;2023-07-13T15:01:53;96318.38;;;29.59;29.49
74270;BME280;62754;48.252;11.654;2023-07-13T15:04:21;96308.47;;;28.57;32.33
74270;BME280;62754;48.252;11.654;2023-07-13T15:07:00;96299.59;;;28.74;31.19
74270;BME280;62754;48.252;11.654;2023-07-13T15:09:27;96304.41;;;28.42;32.37
74270;BME280;62754;48.252;11.654;2023-07-13T15:11:56;96302.00;;;27.22;33.47
74270;BME280;62754;48.252;11.654;2023-07-13T15:14:23;96303.31;;;26.94;35.28
74270;BME280;62754;48.252;11.654;2023-07-13T15:16:50;96301.44;;;26.52;36.27
74270;BME280;62754;48.252;11.654;2023-07-13T15:19:17;96308.31;;;25.66;36.63
74270;BME280;62754;48.252;11.654;2023-07-13T15:21:47;96302.38;;;25.32;37.67
74270;BME280;62754;48.252;11.654;2023-07-13T15:24:15;96305.25;;;25.75;37.06
74270;BME280;62754;48.252;11.654;2023-07-13T15:26:42;96293.50;;;25.96;36.39
74270;BME280;62754;48.252;11.654;2023-07-13T15:29:08;96295.69;;;26.05;36.51
74270;BME280;62754;48.252;11.654;2023-07-13T15:31:36;96304.44;;;25.75;37.48
74270;BME280;62754;48.252;11.654;2023-07-13T15:34:08;96307.47;;;25.27;38.35
74270;BME280;62754;48.252;11.654;2023-07-13T15:36:37;96305.34;;;24.85;39.81
74270;BME280;62754;48.252;11.654;2023-07-13T15:39:06;96300.16;;;25.23;39.46
74270;BME280;62754;48.252;11.654;2023-07-13T15:41:33;96287.44;;;25.13;38.72
74270;BME280;62754;48.252;11.654;2023-07-13T15:44:12;96294.38;;;25.58;39.86
74270;BME280;62754;48.252;11.654;2023-07-13T15:46:50;96298.84;;;25.45;38.81
74270;BME280;62754;48.252;11.654;2023-07-13T15:49:17;96294.22;;;25.40;38.98
74270;BME280;62754;48.252;11.654;2023-07-13T15:51:45;96297.56;;;25.67;38.30
74270;BME280;62754;48.252;11.654;2023-07-13T15:54:16;96291.53;;;25.53;37.50
74270;BME280;62754;48.252;11.654;2023-07-13T15:56:42;96290.00;;;25.26;39.07
74270;BME280;62754;48.252;11.654;2023-07-13T15:59:11;96285.88;;;25.43;39.19
74270;BME280;62754;48.252;11.654;2023-07-13T16:01:40;96294.44;;;25.39;39.44
74270;BME280;62754;48.252;11.654;2023-07-13T16:04:06;96297.00;;;25.58;38.80
74270;BME280;62754;48.252;11.654;2023-07-13T16:06:34;96300.31;;;25.34;39.24
74270;BME280;62754;48.252;11.654;2023-07-13T16:09:07;96297.75;;;25.21;39.01
74270;BME280;62754;48.252;11.654;2023-07-13T16:11:41;96294.72;;;25.11;38.11
74270;BME280;62754;48.252;11.654;2023-07-13T16:14:13;96306.50;;;25.15;39.40
74270;BME280;62754;48.252;11.654;2023-07-13T16:16:43;96305.16;;;24.60;40.36
74270;BME280;62754;48.252;11.654;2023-07-13T16:19:11;96305.78;;;24.55;40.34
74270;BME280;62754;48.252;11.654;2023-07-13T16:21:44;96307.00;;;24.59;39.13